Girouxville, Canada
Current Conditions -  °F | °C
As of 5:00 PM on Friday 31 Oct 2014 (Local Time) from CYPE Reporting Station
Broken Clouds Broken Clouds  
Wind Chill: 35°   Ceiling: 12000
Heat Index: 41°   Visibility: 15mi
Dew Point: 34°   Wind: 10mph
Humidity: 76%   Direction: 270°W
Pressure: 29.63"   Gusts: NA
Location:  55.75°N, 117.33°W
Report Text: CYPE 312300Z 27009KT 15SM SCT080 BKN120 BKN250 05/01 A2963 RMK AC3AC3CI1 SLP057
Loading
Personal Weather Stations






























Interactive Weather Map
Tropical Storm Tracking
New forecast layout! Learn more

10-Day Weather Forecast

Advertisements
Track Severe Weather on mobile